sensor_id;sensor_type;location;lat;lon;timestamp;P1;durP1;ratioP1;P2;durP2;ratioP2
2177;SDS011;1095;50.992;6.798;2022-08-21T00:01:21;21.30;;;11.40;;
2177;SDS011;1095;50.992;6.798;2022-08-21T00:03:51;21.10;;;10.67;;
2177;SDS011;1095;50.992;6.798;2022-08-21T00:06:18;16.20;;;11.38;;
2177;SDS011;1095;50.992;6.798;2022-08-21T00:08:45;15.73;;;12.10;;
2177;SDS011;1095;50.992;6.798;2022-08-21T00:11:12;16.15;;;10.60;;
2177;SDS011;1095;50.992;6.798;2022-08-21T00:13:38;18.50;;;10.75;;
2177;SDS011;1095;50.992;6.798;2022-08-21T00:16:07;14.38;;;10.63;;
2177;SDS011;1095;50.992;6.798;2022-08-21T00:18:33;18.35;;;11.63;;
2177;SDS011;1095;50.992;6.798;2022-08-21T00:21:00;15.77;;;10.50;;
2177;SDS011;1095;50.992;6.798;2022-08-21T00:23:27;21.95;;;11.63;;
2177;SDS011;1095;50.992;6.798;2022-08-21T00:25:54;19.08;;;10.40;;
2177;SDS011;1095;50.992;6.798;2022-08-21T00:28:20;20.70;;;11.27;;
2177;SDS011;1095;50.992;6.798;2022-08-21T00:30:47;15.82;;;10.20;;
2177;SDS011;1095;50.992;6.798;2022-08-21T00:33:15;16.75;;;10.68;;
2177;SDS011;1095;50.992;6.798;2022-08-21T00:35:42;17.95;;;11.35;;
2177;SDS011;1095;50.992;6.798;2022-08-21T00:38:09;13.55;;;10.52;;
2177;SDS011;1095;50.992;6.798;2022-08-21T00:40:38;20.27;;;11.23;;
2177;SDS011;1095;50.992;6.798;2022-08-21T00:43:10;14.18;;;10.57;;
2177;SDS011;1095;50.992;6.798;2022-08-21T00:45:38;14.75;;;11.23;;
2177;SDS011;1095;50.992;6.798;2022-08-21T00:48:05;14.52;;;10.55;;
2177;SDS011;1095;50.992;6.798;2022-08-21T00:50:35;14.45;;;10.93;;
2177;SDS011;1095;50.992;6.798;2022-08-21T00:53:06;13.90;;;10.60;;
2177;SDS011;1095;50.992;6.798;2022-08-21T00:55:34;16.20;;;10.70;;
2177;SDS011;1095;50.992;6.798;2022-08-21T00:58:03;16.58;;;10.82;;
2177;SDS011;1095;50.992;6.798;2022-08-21T01:00:33;18.73;;;9.93;;
2177;SDS011;1095;50.992;6.798;2022-08-21T01:03:05;15.02;;;10.07;;
2177;SDS011;1095;50.992;6.798;2022-08-21T01:05:37;18.30;;;9.98;;
2177;SDS011;1095;50.992;6.798;2022-08-21T01:08:04;11.23;;;9.52;;
2177;SDS011;1095;50.992;6.798;2022-08-21T01:10:32;15.05;;;10.50;;
2177;SDS011;1095;50.992;6.798;2022-08-21T01:13:00;15.90;;;9.80;;
2177;SDS011;1095;50.992;6.798;2022-08-21T01:15:30;16.55;;;9.95;;
2177;SDS011;1095;50.992;6.798;2022-08-21T01:17:59;13.73;;;10.02;;
2177;SDS011;1095;50.992;6.798;2022-08-21T01:20:27;13.55;;;10.82;;
2177;SDS011;1095;50.992;6.798;2022-08-21T01:22:55;15.63;;;10.82;;
2177;SDS011;1095;50.992;6.798;2022-08-21T01:25:23;14.35;;;10.32;;
2177;SDS011;1095;50.992;6.798;2022-08-21T01:27:49;16.50;;;10.75;;
2177;SDS011;1095;50.992;6.798;2022-08-21T01:30:17;12.00;;;10.07;;
2177;SDS011;1095;50.992;6.798;2022-08-21T01:32:46;11.93;;;9.93;;
2177;SDS011;1095;50.992;6.798;2022-08-21T01:35:14;12.75;;;9.68;;
2177;SDS011;1095;50.992;6.798;2022-08-21T01:37:42;16.48;;;10.15;;
2177;SDS011;1095;50.992;6.798;2022-08-21T01:40:12;13.35;;;10.07;;
2177;SDS011;1095;50.992;6.798;2022-08-21T01:42:41;14.38;;;10.13;;
2177;SDS011;1095;50.992;6.798;2022-08-21T01:45:08;15.98;;;10.52;;
2177;SDS011;1095;50.992;6.798;2022-08-21T01:47:36;17.92;;;10.52;;
2177;SDS011;1095;50.992;6.798;2022-08-21T01:50:03;14.25;;;10.27;;
2177;SDS011;1095;50.992;6.798;2022-08-21T01:52:32;17.88;;;11.68;;
2177;SDS011;1095;50.992;6.798;2022-08-21T01:54:59;15.02;;;12.00;;
2177;SDS011;1095;50.992;6.798;2022-08-21T01:57:27;17.27;;;12.25;;
2177;SDS011;1095;50.992;6.798;2022-08-21T01:59:53;17.40;;;12.80;;
2177;SDS011;1095;50.992;6.798;2022-08-21T02:02:20;19.92;;;13.57;;
2177;SDS011;1095;50.992;6.798;2022-08-21T02:04:47;18.35;;;12.93;;
2177;SDS011;1095;50.992;6.798;2022-08-21T02:07:13;17.73;;;12.63;;
2177;SDS011;1095;50.992;6.798;2022-08-21T02:09:40;20.77;;;13.80;;
2177;SDS011;1095;50.992;6.798;2022-08-21T02:12:08;20.05;;;13.05;;
2177;SDS011;1095;50.992;6.798;2022-08-21T02:14:36;19.98;;;12.95;;
2177;SDS011;1095;50.992;6.798;2022-08-21T02:17:03;20.55;;;12.55;;
2177;SDS011;1095;50.992;6.798;2022-08-21T02:19:31;16.77;;;12.82;;
2177;SDS011;1095;50.992;6.798;2022-08-21T02:21:58;16.60;;;12.75;;
2177;SDS011;1095;50.992;6.798;2022-08-21T02:24:24;19.85;;;12.68;;
2177;SDS011;1095;50.992;6.798;2022-08-21T02:26:51;16.50;;;12.40;;
2177;SDS011;1095;50.992;6.798;2022-08-21T02:29:17;21.50;;;12.75;;
2177;SDS011;1095;50.992;6.798;2022-08-21T02:31:45;17.05;;;12.70;;
2177;SDS011;1095;50.992;6.798;2022-08-21T02:34:12;17.30;;;12.75;;
2177;SDS011;1095;50.992;6.798;2022-08-21T02:36:39;21.88;;;13.50;;
2177;SDS011;1095;50.992;6.798;2022-08-21T02:39:05;23.63;;;12.25;;
2177;SDS011;1095;50.992;6.798;2022-08-21T02:41:32;25.90;;;14.27;;
2177;SDS011;1095;50.992;6.798;2022-08-21T02:43:59;23.67;;;12.18;;
2177;SDS011;1095;50.992;6.798;2022-08-21T02:46:25;17.02;;;13.15;;
2177;SDS011;1095;50.992;6.798;2022-08-21T02:48:53;20.15;;;13.10;;
2177;SDS011;1095;50.992;6.798;2022-08-21T02:51:20;17.75;;;12.40;;
2177;SDS011;1095;50.992;6.798;2022-08-21T02:53:47;16.92;;;12.57;;
2177;SDS011;1095;50.992;6.798;2022-08-21T02:56:17;18.23;;;12.20;;
2177;SDS011;1095;50.992;6.798;2022-08-21T02:58:47;20.02;;;12.38;;
2177;SDS011;1095;50.992;6.798;2022-08-21T03:01:16;17.80;;;12.20;;
2177;SDS011;1095;50.992;6.798;2022-08-21T03:03:44;18.17;;;12.85;;
2177;SDS011;1095;50.992;6.798;2022-08-21T03:06:17;15.70;;;12.38;;
2177;SDS011;1095;50.992;6.798;2022-08-21T03:08:45;16.92;;;12.57;;
2177;SDS011;1095;50.992;6.798;2022-08-21T03:11:12;18.17;;;12.65;;
2177;SDS011;1095;50.992;6.798;2022-08-21T03:13:40;18.13;;;12.23;;
2177;SDS011;1095;50.992;6.798;2022-08-21T03:16:07;17.88;;;13.23;;
2177;SDS011;1095;50.992;6.798;2022-08-21T03:18:34;18.35;;;12.02;;
2177;SDS011;1095;50.992;6.798;2022-08-21T03:21:01;18.48;;;12.68;;
2177;SDS011;1095;50.992;6.798;2022-08-21T03:23:29;19.52;;;13.05;;
2177;SDS011;1095;50.992;6.798;2022-08-21T03:25:57;16.65;;;11.20;;
2177;SDS011;1095;50.992;6.798;2022-08-21T03:28:24;17.90;;;12.38;;
2177;SDS011;1095;50.992;6.798;2022-08-21T03:30:51;17.02;;;12.93;;
2177;SDS011;1095;50.992;6.798;2022-08-21T03:33:19;20.10;;;13.15;;
2177;SDS011;1095;50.992;6.798;2022-08-21T03:35:47;17.58;;;12.07;;
2177;SDS011;1095;50.992;6.798;2022-08-21T03:38:18;17.88;;;12.98;;
2177;SDS011;1095;50.992;6.798;2022-08-21T03:40:47;18.75;;;12.40;;
2177;SDS011;1095;50.992;6.798;2022-08-21T03:43:13;17.33;;;12.35;;
2177;SDS011;1095;50.992;6.798;2022-08-21T03:45:40;14.27;;;12.10;;
2177;SDS011;1095;50.992;6.798;2022-08-21T03:48:07;17.77;;;12.88;;
2177;SDS011;1095;50.992;6.798;2022-08-21T03:50:36;15.82;;;11.88;;
2177;SDS011;1095;50.992;6.798;2022-08-21T03:53:04;17.77;;;11.52;;
2177;SDS011;1095;50.992;6.798;2022-08-21T03:55:31;19.58;;;12.20;;
2177;SDS011;1095;50.992;6.798;2022-08-21T03:57:59;16.83;;;11.48;;
2177;SDS011;1095;50.992;6.798;2022-08-21T04:00:26;15.30;;;10.82;;
2177;SDS011;1095;50.992;6.798;2022-08-21T04:02:53;15.52;;;10.98;;
2177;SDS011;1095;50.992;6.798;2022-08-21T04:05:19;18.83;;;11.50;;
2177;SDS011;1095;50.992;6.798;2022-08-21T04:07:53;17.92;;;12.05;;
2177;SDS011;1095;50.992;6.798;2022-08-21T04:10:21;15.30;;;10.60;;
2177;SDS011;1095;50.992;6.798;2022-08-21T04:12:49;18.60;;;11.60;;
2177;SDS011;1095;50.992;6.798;2022-08-21T04:15:18;14.40;;;12.13;;
2177;SDS011;1095;50.992;6.798;2022-08-21T04:17:46;16.83;;;10.88;;
2177;SDS011;1095;50.992;6.798;2022-08-21T04:20:13;18.67;;;11.00;;
2177;SDS011;1095;50.992;6.798;2022-08-21T04:22:40;16.05;;;11.23;;
2177;SDS011;1095;50.992;6.798;2022-08-21T04:25:07;18.88;;;11.50;;
2177;SDS011;1095;50.992;6.798;2022-08-21T04:27:34;16.83;;;11.45;;
2177;SDS011;1095;50.992;6.798;2022-08-21T04:30:01;14.63;;;11.10;;
2177;SDS011;1095;50.992;6.798;2022-08-21T04:32:29;19.15;;;11.38;;
2177;SDS011;1095;50.992;6.798;2022-08-21T04:34:59;15.80;;;11.13;;
2177;SDS011;1095;50.992;6.798;2022-08-21T04:37:27;21.77;;;12.35;;
2177;SDS011;1095;50.992;6.798;2022-08-21T04:39:54;24.45;;;12.13;;
2177;SDS011;1095;50.992;6.798;2022-08-21T04:42:22;20.40;;;12.45;;
2177;SDS011;1095;50.992;6.798;2022-08-21T04:44:49;18.13;;;12.80;;
2177;SDS011;1095;50.992;6.798;2022-08-21T04:47:16;18.42;;;11.95;;
2177;SDS011;1095;50.992;6.798;2022-08-21T04:49:44;17.33;;;11.82;;
2177;SDS011;1095;50.992;6.798;2022-08-21T04:52:11;18.08;;;11.45;;
2177;SDS011;1095;50.992;6.798;2022-08-21T04:54:41;16.58;;;12.10;;
2177;SDS011;1095;50.992;6.798;2022-08-21T04:57:10;19.60;;;12.02;;
2177;SDS011;1095;50.992;6.798;2022-08-21T04:59:40;16.98;;;12.23;;
2177;SDS011;1095;50.992;6.798;2022-08-21T05:02:11;16.95;;;12.45;;
2177;SDS011;1095;50.992;6.798;2022-08-21T05:04:39;15.70;;;12.18;;
2177;SDS011;1095;50.992;6.798;2022-08-21T05:07:12;17.30;;;11.57;;
2177;SDS011;1095;50.992;6.798;2022-08-21T05:12:09;18.50;;;11.52;;
2177;SDS011;1095;50.992;6.798;2022-08-21T05:14:36;16.92;;;10.88;;
2177;SDS011;1095;50.992;6.798;2022-08-21T05:17:03;18.13;;;11.38;;
2177;SDS011;1095;50.992;6.798;2022-08-21T05:19:30;18.05;;;11.48;;
2177;SDS011;1095;50.992;6.798;2022-08-21T05:21:57;16.55;;;11.80;;
2177;SDS011;1095;50.992;6.798;2022-08-21T05:24:25;16.38;;;11.40;;
2177;SDS011;1095;50.992;6.798;2022-08-21T05:26:52;16.38;;;11.25;;
2177;SDS011;1095;50.992;6.798;2022-08-21T05:29:18;16.23;;;10.85;;
2177;SDS011;1095;50.992;6.798;2022-08-21T05:31:46;15.45;;;10.95;;
2177;SDS011;1095;50.992;6.798;2022-08-21T05:34:13;17.10;;;11.07;;
2177;SDS011;1095;50.992;6.798;2022-08-21T05:36:41;15.02;;;11.00;;
2177;SDS011;1095;50.992;6.798;2022-08-21T05:39:08;19.13;;;12.20;;
2177;SDS011;1095;50.992;6.798;2022-08-21T05:41:36;15.18;;;10.45;;
2177;SDS011;1095;50.992;6.798;2022-08-21T05:44:02;17.23;;;9.95;;
2177;SDS011;1095;50.992;6.798;2022-08-21T05:46:29;14.30;;;9.00;;
2177;SDS011;1095;50.992;6.798;2022-08-21T05:48:56;15.75;;;9.02;;
2177;SDS011;1095;50.992;6.798;2022-08-21T05:51:23;16.73;;;9.25;;
2177;SDS011;1095;50.992;6.798;2022-08-21T05:53:50;15.35;;;8.80;;
2177;SDS011;1095;50.992;6.798;2022-08-21T05:56:16;14.38;;;8.02;;
2177;SDS011;1095;50.992;6.798;2022-08-21T05:58:44;12.95;;;8.95;;
2177;SDS011;1095;50.992;6.798;2022-08-21T06:01:11;11.75;;;7.65;;
2177;SDS011;1095;50.992;6.798;2022-08-21T06:03:40;12.07;;;7.65;;
2177;SDS011;1095;50.992;6.798;2022-08-21T06:06:07;12.40;;;6.97;;
2177;SDS011;1095;50.992;6.798;2022-08-21T06:08:35;12.45;;;7.63;;
2177;SDS011;1095;50.992;6.798;2022-08-21T06:11:03;14.48;;;6.90;;
2177;SDS011;1095;50.992;6.798;2022-08-21T06:13:31;13.80;;;7.28;;
2177;SDS011;1095;50.992;6.798;2022-08-21T06:16:04;16.52;;;7.07;;
2177;SDS011;1095;50.992;6.798;2022-08-21T06:18:33;14.27;;;7.15;;
2177;SDS011;1095;50.992;6.798;2022-08-21T06:21:00;13.88;;;7.03;;
2177;SDS011;1095;50.992;6.798;2022-08-21T06:23:26;14.68;;;7.70;;
2177;SDS011;1095;50.992;6.798;2022-08-21T06:25:53;11.88;;;6.97;;
2177;SDS011;1095;50.992;6.798;2022-08-21T06:28:20;11.10;;;6.93;;
2177;SDS011;1095;50.992;6.798;2022-08-21T06:30:46;9.48;;;6.57;;
2177;SDS011;1095;50.992;6.798;2022-08-21T06:33:15;12.80;;;6.97;;
2177;SDS011;1095;50.992;6.798;2022-08-21T06:35:41;14.40;;;6.35;;
2177;SDS011;1095;50.992;6.798;2022-08-21T06:38:08;11.57;;;7.00;;
2177;SDS011;1095;50.992;6.798;2022-08-21T06:40:35;11.02;;;6.25;;
2177;SDS011;1095;50.992;6.798;2022-08-21T06:43:06;9.07;;;6.55;;
2177;SDS011;1095;50.992;6.798;2022-08-21T06:45:34;10.27;;;6.55;;
2177;SDS011;1095;50.992;6.798;2022-08-21T06:48:01;9.60;;;5.97;;
2177;SDS011;1095;50.992;6.798;2022-08-21T06:50:29;11.45;;;6.53;;
2177;SDS011;1095;50.992;6.798;2022-08-21T06:53:01;15.32;;;6.57;;
2177;SDS011;1095;50.992;6.798;2022-08-21T06:55:29;10.65;;;6.55;;
2177;SDS011;1095;50.992;6.798;2022-08-21T06:57:55;10.07;;;6.32;;
2177;SDS011;1095;50.992;6.798;2022-08-21T07:00:22;12.45;;;5.93;;
2177;SDS011;1095;50.992;6.798;2022-08-21T07:02:49;11.82;;;6.07;;
2177;SDS011;1095;50.992;6.798;2022-08-21T07:05:15;10.77;;;5.20;;
2177;SDS011;1095;50.992;6.798;2022-08-21T07:07:43;9.48;;;4.63;;
2177;SDS011;1095;50.992;6.798;2022-08-21T07:10:10;8.02;;;4.22;;
2177;SDS011;1095;50.992;6.798;2022-08-21T07:12:37;9.45;;;4.40;;
2177;SDS011;1095;50.992;6.798;2022-08-21T07:15:04;8.27;;;3.90;;
2177;SDS011;1095;50.992;6.798;2022-08-21T07:17:31;9.38;;;3.67;;
2177;SDS011;1095;50.992;6.798;2022-08-21T07:19:58;12.45;;;4.60;;
2177;SDS011;1095;50.992;6.798;2022-08-21T07:22:25;9.70;;;4.22;;
2177;SDS011;1095;50.992;6.798;2022-08-21T07:24:54;12.82;;;4.40;;
2177;SDS011;1095;50.992;6.798;2022-08-21T07:27:21;11.32;;;4.00;;
2177;SDS011;1095;50.992;6.798;2022-08-21T07:29:48;10.73;;;3.80;;
2177;SDS011;1095;50.992;6.798;2022-08-21T07:32:14;8.07;;;3.70;;
2177;SDS011;1095;50.992;6.798;2022-08-21T07:34:41;9.70;;;3.70;;
2177;SDS011;1095;50.992;6.798;2022-08-21T07:37:08;9.48;;;3.78;;
2177;SDS011;1095;50.992;6.798;2022-08-21T07:39:34;8.50;;;3.30;;
2177;SDS011;1095;50.992;6.798;2022-08-21T07:42:02;8.43;;;3.35;;
2177;SDS011;1095;50.992;6.798;2022-08-21T07:44:29;8.55;;;3.63;;
2177;SDS011;1095;50.992;6.798;2022-08-21T07:46:56;11.02;;;4.20;;
2177;SDS011;1095;50.992;6.798;2022-08-21T07:49:23;6.50;;;3.50;;
2177;SDS011;1095;50.992;6.798;2022-08-21T07:51:49;10.27;;;4.32;;
2177;SDS011;1095;50.992;6.798;2022-08-21T07:54:16;10.75;;;4.50;;
2177;SDS011;1095;50.992;6.798;2022-08-21T07:56:43;9.05;;;4.30;;
2177;SDS011;1095;50.992;6.798;2022-08-21T07:59:12;9.27;;;3.88;;
2177;SDS011;1095;50.992;6.798;2022-08-21T08:01:38;12.25;;;4.18;;
2177;SDS011;1095;50.992;6.798;2022-08-21T08:04:05;11.18;;;4.63;;
2177;SDS011;1095;50.992;6.798;2022-08-21T08:06:32;13.65;;;4.60;;
2177;SDS011;1095;50.992;6.798;2022-08-21T08:08:59;11.95;;;4.65;;
2177;SDS011;1095;50.992;6.798;2022-08-21T08:11:27;8.63;;;4.03;;
2177;SDS011;1095;50.992;6.798;2022-08-21T08:13:54;8.45;;;4.30;;
2177;SDS011;1095;50.992;6.798;2022-08-21T08:16:23;11.95;;;3.83;;
2177;SDS011;1095;50.992;6.798;2022-08-21T08:18:50;8.20;;;4.43;;
2177;SDS011;1095;50.992;6.798;2022-08-21T08:21:17;6.85;;;3.88;;
2177;SDS011;1095;50.992;6.798;2022-08-21T08:23:45;8.40;;;3.90;;
2177;SDS011;1095;50.992;6.798;2022-08-21T08:26:12;6.63;;;3.75;;
2177;SDS011;1095;50.992;6.798;2022-08-21T08:28:40;9.55;;;3.70;;
2177;SDS011;1095;50.992;6.798;2022-08-21T08:31:08;7.60;;;3.50;;
2177;SDS011;1095;50.992;6.798;2022-08-21T08:33:36;6.82;;;3.70;;
2177;SDS011;1095;50.992;6.798;2022-08-21T08:36:02;8.25;;;3.30;;
2177;SDS011;1095;50.992;6.798;2022-08-21T08:38:29;7.95;;;3.22;;
2177;SDS011;1095;50.992;6.798;2022-08-21T08:40:58;6.63;;;3.35;;
2177;SDS011;1095;50.992;6.798;2022-08-21T08:43:29;9.20;;;4.00;;
2177;SDS011;1095;50.992;6.798;2022-08-21T08:45:58;7.60;;;3.42;;
2177;SDS011;1095;50.992;6.798;2022-08-21T08:48:38;10.05;;;3.58;;
2177;SDS011;1095;50.992;6.798;2022-08-21T08:51:12;8.02;;;3.30;;
2177;SDS011;1095;50.992;6.798;2022-08-21T08:53:46;14.20;;;4.15;;
2177;SDS011;1095;50.992;6.798;2022-08-21T08:56:18;8.70;;;3.40;;
2177;SDS011;1095;50.992;6.798;2022-08-21T08:58:51;9.18;;;3.38;;
2177;SDS011;1095;50.992;6.798;2022-08-21T09:01:20;7.15;;;3.90;;
2177;SDS011;1095;50.992;6.798;2022-08-21T09:03:48;9.65;;;3.50;;
2177;SDS011;1095;50.992;6.798;2022-08-21T09:06:24;9.55;;;2.97;;
2177;SDS011;1095;50.992;6.798;2022-08-21T09:09:02;10.07;;;4.00;;
2177;SDS011;1095;50.992;6.798;2022-08-21T09:11:41;8.00;;;3.47;;
2177;SDS011;1095;50.992;6.798;2022-08-21T09:14:16;6.65;;;3.33;;
2177;SDS011;1095;50.992;6.798;2022-08-21T09:16:53;8.55;;;4.00;;
2177;SDS011;1095;50.992;6.798;2022-08-21T09:19:36;9.15;;;3.45;;
2177;SDS011;1095;50.992;6.798;2022-08-21T09:22:18;9.85;;;3.60;;
2177;SDS011;1095;50.992;6.798;2022-08-21T09:24:58;6.97;;;3.45;;
2177;SDS011;1095;50.992;6.798;2022-08-21T09:27:32;8.60;;;3.63;;
2177;SDS011;1095;50.992;6.798;2022-08-21T09:30:00;8.10;;;3.90;;
2177;SDS011;1095;50.992;6.798;2022-08-21T09:32:28;9.70;;;3.83;;
2177;SDS011;1095;50.992;6.798;2022-08-21T09:35:00;9.57;;;3.40;;
2177;SDS011;1095;50.992;6.798;2022-08-21T09:37:33;8.93;;;4.07;;
2177;SDS011;1095;50.992;6.798;2022-08-21T09:40:02;8.43;;;3.30;;
2177;SDS011;1095;50.992;6.798;2022-08-21T09:42:41;7.50;;;3.83;;
2177;SDS011;1095;50.992;6.798;2022-08-21T09:45:10;11.23;;;4.00;;
2177;SDS011;1095;50.992;6.798;2022-08-21T09:47:39;9.57;;;3.30;;
2177;SDS011;1095;50.992;6.798;2022-08-21T09:50:12;11.43;;;4.35;;
2177;SDS011;1095;50.992;6.798;2022-08-21T09:52:46;9.27;;;3.67;;
2177;SDS011;1095;50.992;6.798;2022-08-21T09:55:16;8.27;;;3.47;;
2177;SDS011;1095;50.992;6.798;2022-08-21T09:58:04;10.15;;;3.95;;
2177;SDS011;1095;50.992;6.798;2022-08-21T10:00:34;8.73;;;3.35;;
2177;SDS011;1095;50.992;6.798;2022-08-21T10:03:09;8.32;;;3.65;;
2177;SDS011;1095;50.992;6.798;2022-08-21T10:05:39;8.45;;;3.85;;
2177;SDS011;1095;50.992;6.798;2022-08-21T10:08:16;11.65;;;4.15;;
2177;SDS011;1095;50.992;6.798;2022-08-21T10:10:44;4.70;;;3.20;;
2177;SDS011;1095;50.992;6.798;2022-08-21T10:13:12;10.82;;;3.75;;
2177;SDS011;1095;50.992;6.798;2022-08-21T10:15:46;6.75;;;2.90;;
2177;SDS011;1095;50.992;6.798;2022-08-21T10:18:20;9.77;;;3.22;;
2177;SDS011;1095;50.992;6.798;2022-08-21T10:20:54;9.23;;;3.50;;
2177;SDS011;1095;50.992;6.798;2022-08-21T10:23:32;8.20;;;3.30;;
2177;SDS011;1095;50.992;6.798;2022-08-21T10:26:21;5.97;;;3.10;;
2177;SDS011;1095;50.992;6.798;2022-08-21T10:28:57;9.80;;;3.58;;
2177;SDS011;1095;50.992;6.798;2022-08-21T10:31:31;10.20;;;3.30;;
2177;SDS011;1095;50.992;6.798;2022-08-21T10:34:08;8.23;;;3.40;;
2177;SDS011;1095;50.992;6.798;2022-08-21T10:36:51;9.45;;;3.22;;
2177;SDS011;1095;50.992;6.798;2022-08-21T10:39:27;8.35;;;3.63;;
2177;SDS011;1095;50.992;6.798;2022-08-21T10:42:04;7.53;;;3.33;;
2177;SDS011;1095;50.992;6.798;2022-08-21T10:44:45;8.63;;;3.10;;
2177;SDS011;1095;50.992;6.798;2022-08-21T10:47:18;7.03;;;3.33;;
2177;SDS011;1095;50.992;6.798;2022-08-21T10:49:56;9.23;;;3.22;;
2177;SDS011;1095;50.992;6.798;2022-08-21T10:52:35;7.60;;;3.40;;
2177;SDS011;1095;50.992;6.798;2022-08-21T10:55:11;10.30;;;3.35;;
2177;SDS011;1095;50.992;6.798;2022-08-21T10:57:43;10.23;;;3.53;;
2177;SDS011;1095;50.992;6.798;2022-08-21T11:00:17;7.50;;;3.65;;
2177;SDS011;1095;50.992;6.798;2022-08-21T11:02:49;8.35;;;3.28;;
2177;SDS011;1095;50.992;6.798;2022-08-21T11:05:24;7.18;;;3.20;;
2177;SDS011;1095;50.992;6.798;2022-08-21T11:07:57;8.32;;;3.75;;
2177;SDS011;1095;50.992;6.798;2022-08-21T11:10:31;8.82;;;3.38;;
2177;SDS011;1095;50.992;6.798;2022-08-21T11:13:04;6.45;;;3.08;;
2177;SDS011;1095;50.992;6.798;2022-08-21T11:15:36;7.03;;;3.25;;
2177;SDS011;1095;50.992;6.798;2022-08-21T11:18:24;6.47;;;3.20;;
2177;SDS011;1095;50.992;6.798;2022-08-21T11:20:58;7.25;;;3.00;;
2177;SDS011;1095;50.992;6.798;2022-08-21T11:23:31;6.00;;;3.17;;
2177;SDS011;1095;50.992;6.798;2022-08-21T11:26:05;8.38;;;3.75;;
2177;SDS011;1095;50.992;6.798;2022-08-21T11:28:37;5.70;;;3.00;;
2177;SDS011;1095;50.992;6.798;2022-08-21T11:31:12;6.43;;;3.28;;
2177;SDS011;1095;50.992;6.798;2022-08-21T11:33:52;8.48;;;3.45;;
2177;SDS011;1095;50.992;6.798;2022-08-21T11:36:32;6.40;;;3.28;;
2177;SDS011;1095;50.992;6.798;2022-08-21T11:41:43;8.32;;;3.38;;
2177;SDS011;1095;50.992;6.798;2022-08-21T11:44:20;6.65;;;3.60;;
2177;SDS011;1095;50.992;6.798;2022-08-21T11:46:53;8.52;;;3.60;;
2177;SDS011;1095;50.992;6.798;2022-08-21T11:49:34;5.70;;;3.38;;
2177;SDS011;1095;50.992;6.798;2022-08-21T11:52:14;8.23;;;3.35;;
2177;SDS011;1095;50.992;6.798;2022-08-21T11:54:48;8.52;;;3.20;;
2177;SDS011;1095;50.992;6.798;2022-08-21T11:57:19;7.38;;;3.53;;
2177;SDS011;1095;50.992;6.798;2022-08-21T11:59:51;6.10;;;3.35;;
2177;SDS011;1095;50.992;6.798;2022-08-21T12:02:24;7.63;;;3.50;;
2177;SDS011;1095;50.992;6.798;2022-08-21T12:07:30;9.30;;;3.90;;
2177;SDS011;1095;50.992;6.798;2022-08-21T12:10:03;9.80;;;3.72;;
2177;SDS011;1095;50.992;6.798;2022-08-21T12:12:33;6.80;;;3.25;;
2177;SDS011;1095;50.992;6.798;2022-08-21T12:15:24;6.15;;;3.50;;
2177;SDS011;1095;50.992;6.798;2022-08-21T12:17:59;9.35;;;3.60;;
2177;SDS011;1095;50.992;6.798;2022-08-21T12:20:39;7.63;;;3.60;;
2177;SDS011;1095;50.992;6.798;2022-08-21T12:23:16;8.43;;;3.65;;
2177;SDS011;1095;50.992;6.798;2022-08-21T12:26:09;7.00;;;3.40;;
2177;SDS011;1095;50.992;6.798;2022-08-21T12:28:45;7.97;;;3.50;;
2177;SDS011;1095;50.992;6.798;2022-08-21T12:31:20;5.15;;;3.13;;
2177;SDS011;1095;50.992;6.798;2022-08-21T12:33:51;8.10;;;3.20;;
2177;SDS011;1095;50.992;6.798;2022-08-21T12:36:22;6.25;;;3.20;;
2177;SDS011;1095;50.992;6.798;2022-08-21T12:38:54;7.75;;;3.40;;
2177;SDS011;1095;50.992;6.798;2022-08-21T12:41:27;10.40;;;3.42;;
2177;SDS011;1095;50.992;6.798;2022-08-21T12:43:58;7.93;;;3.53;;
2177;SDS011;1095;50.992;6.798;2022-08-21T12:46:32;6.65;;;3.38;;
2177;SDS011;1095;50.992;6.798;2022-08-21T12:49:03;10.30;;;3.60;;
2177;SDS011;1095;50.992;6.798;2022-08-21T12:51:43;7.65;;;3.35;;
2177;SDS011;1095;50.992;6.798;2022-08-21T12:54:25;7.95;;;3.90;;
2177;SDS011;1095;50.992;6.798;2022-08-21T12:57:01;9.65;;;3.47;;
2177;SDS011;1095;50.992;6.798;2022-08-21T12:59:30;8.90;;;3.20;;
2177;SDS011;1095;50.992;6.798;2022-08-21T13:01:58;7.68;;;3.78;;
2177;SDS011;1095;50.992;6.798;2022-08-21T13:04:32;7.43;;;3.25;;
2177;SDS011;1095;50.992;6.798;2022-08-21T13:07:06;8.05;;;3.53;;
2177;SDS011;1095;50.992;6.798;2022-08-21T13:09:36;7.07;;;3.50;;
2177;SDS011;1095;50.992;6.798;2022-08-21T13:12:10;6.63;;;3.13;;
2177;SDS011;1095;50.992;6.798;2022-08-21T13:14:38;8.10;;;3.42;;
2177;SDS011;1095;50.992;6.798;2022-08-21T13:17:07;9.57;;;3.47;;
2177;SDS011;1095;50.992;6.798;2022-08-21T13:19:36;5.05;;;3.63;;
2177;SDS011;1095;50.992;6.798;2022-08-21T13:22:03;6.57;;;3.10;;
2177;SDS011;1095;50.992;6.798;2022-08-21T13:24:40;9.82;;;3.30;;
2177;SDS011;1095;50.992;6.798;2022-08-21T13:27:17;7.40;;;3.42;;
2177;SDS011;1095;50.992;6.798;2022-08-21T13:29:49;7.03;;;3.20;;
2177;SDS011;1095;50.992;6.798;2022-08-21T13:32:33;5.90;;;3.33;;
2177;SDS011;1095;50.992;6.798;2022-08-21T13:35:07;7.93;;;3.10;;
2177;SDS011;1095;50.992;6.798;2022-08-21T13:37:37;6.25;;;3.50;;
2177;SDS011;1095;50.992;6.798;2022-08-21T13:40:12;7.47;;;3.10;;
2177;SDS011;1095;50.992;6.798;2022-08-21T13:42:43;4.80;;;2.90;;
2177;SDS011;1095;50.992;6.798;2022-08-21T13:45:13;7.15;;;3.78;;
2177;SDS011;1095;50.992;6.798;2022-08-21T13:47:42;5.05;;;3.00;;
2177;SDS011;1095;50.992;6.798;2022-08-21T13:50:12;10.38;;;3.88;;
2177;SDS011;1095;50.992;6.798;2022-08-21T13:52:48;6.65;;;2.90;;
2177;SDS011;1095;50.992;6.798;2022-08-21T13:55:23;8.05;;;3.58;;
2177;SDS011;1095;50.992;6.798;2022-08-21T13:58:00;22.60;;;15.27;;
2177;SDS011;1095;50.992;6.798;2022-08-21T14:00:28;7.57;;;3.60;;
2177;SDS011;1095;50.992;6.798;2022-08-21T14:03:00;5.85;;;3.22;;
2177;SDS011;1095;50.992;6.798;2022-08-21T14:05:31;5.35;;;3.25;;
2177;SDS011;1095;50.992;6.798;2022-08-21T14:08:02;6.05;;;2.80;;
2177;SDS011;1095;50.992;6.798;2022-08-21T14:10:31;5.55;;;2.65;;
2177;SDS011;1095;50.992;6.798;2022-08-21T14:13:05;5.10;;;2.67;;
2177;SDS011;1095;50.992;6.798;2022-08-21T14:15:34;7.03;;;3.03;;
2177;SDS011;1095;50.992;6.798;2022-08-21T14:18:08;4.40;;;2.75;;
2177;SDS011;1095;50.992;6.798;2022-08-21T14:20:39;5.47;;;2.92;;
2177;SDS011;1095;50.992;6.798;2022-08-21T14:23:06;6.22;;;3.03;;
2177;SDS011;1095;50.992;6.798;2022-08-21T14:25:36;5.80;;;2.80;;
2177;SDS011;1095;50.992;6.798;2022-08-21T14:28:12;6.28;;;2.97;;
2177;SDS011;1095;50.992;6.798;2022-08-21T14:30:47;5.57;;;2.90;;
2177;SDS011;1095;50.992;6.798;2022-08-21T14:33:20;5.50;;;3.10;;
2177;SDS011;1095;50.992;6.798;2022-08-21T14:36:00;6.78;;;2.80;;
2177;SDS011;1095;50.992;6.798;2022-08-21T14:38:27;8.23;;;3.13;;
2177;SDS011;1095;50.992;6.798;2022-08-21T14:40:55;7.88;;;2.97;;
2177;SDS011;1095;50.992;6.798;2022-08-21T14:43:26;5.22;;;2.80;;
2177;SDS011;1095;50.992;6.798;2022-08-21T14:45:53;4.68;;;2.60;;
2177;SDS011;1095;50.992;6.798;2022-08-21T14:48:21;5.88;;;2.90;;
2177;SDS011;1095;50.992;6.798;2022-08-21T14:50:47;3.90;;;2.50;;
2177;SDS011;1095;50.992;6.798;2022-08-21T14:53:17;7.03;;;3.28;;
2177;SDS011;1095;50.992;6.798;2022-08-21T14:55:44;6.30;;;3.30;;
2177;SDS011;1095;50.992;6.798;2022-08-21T14:58:29;4.72;;;2.90;;
2177;SDS011;1095;50.992;6.798;2022-08-21T15:00:56;4.45;;;2.40;;
2177;SDS011;1095;50.992;6.798;2022-08-21T15:03:24;4.57;;;2.90;;
2177;SDS011;1095;50.992;6.798;2022-08-21T15:05:51;5.05;;;3.05;;
2177;SDS011;1095;50.992;6.798;2022-08-21T15:08:18;6.38;;;3.35;;
2177;SDS011;1095;50.992;6.798;2022-08-21T15:10:45;6.07;;;2.75;;
2177;SDS011;1095;50.992;6.798;2022-08-21T15:13:12;5.63;;;2.90;;
2177;SDS011;1095;50.992;6.798;2022-08-21T15:15:41;6.93;;;3.20;;
2177;SDS011;1095;50.992;6.798;2022-08-21T15:18:09;5.43;;;3.15;;
2177;SDS011;1095;50.992;6.798;2022-08-21T15:20:36;5.93;;;3.20;;
2177;SDS011;1095;50.992;6.798;2022-08-21T15:23:03;6.97;;;3.05;;
2177;SDS011;1095;50.992;6.798;2022-08-21T15:25:31;6.53;;;3.03;;
2177;SDS011;1095;50.992;6.798;2022-08-21T15:27:58;4.82;;;2.88;;